createdAt,value
2017-05-30T00:01:17.368Z,0
2017-05-30T00:02:16.973Z,0
2017-05-30T00:03:17.238Z,0
2017-05-30T00:04:17.178Z,0
2017-05-30T00:05:16.785Z,0
2017-05-30T00:06:17.057Z,0
2017-05-30T00:07:16.991Z,0
2017-05-30T00:08:17.257Z,0
2017-05-30T00:09:16.868Z,0
2017-05-30T00:10:17.143Z,0
2017-05-30T00:11:17.066Z,0
2017-05-30T00:12:17.005Z,0
2017-05-30T00:13:16.946Z,0
2017-05-30T00:14:16.887Z,0
2017-05-30T00:15:16.826Z,0
2017-05-30T00:16:16.764Z,0
2017-05-30T00:17:16.370Z,0
2017-05-30T00:18:16.637Z,0
2017-05-30T00:19:16.247Z,0
2017-05-30T00:20:16.575Z,0
2017-05-30T00:21:16.651Z,0
2017-05-30T00:22:16.059Z,0
2017-05-30T00:23:16.327Z,0
2017-05-30T00:24:16.273Z,0
2017-05-30T00:25:16.201Z,0
2017-05-30T00:26:16.139Z,0
2017-05-30T00:27:16.169Z,0
2017-05-30T00:28:16.015Z,0
2017-05-30T00:29:16.055Z,0
2017-05-30T00:30:15.238Z,0
2017-05-30T00:31:15.828Z,0
2017-05-30T00:32:15.770Z,0
2017-05-30T00:33:15.705Z,0
2017-05-30T00:34:15.326Z,0
2017-05-30T00:35:15.254Z,0
2017-05-30T00:36:15.191Z,0
2017-05-30T00:37:15.131Z,0
2017-05-30T00:38:15.065Z,0
2017-05-30T00:39:14.672Z,0
2017-05-30T00:40:15.270Z,0
2017-05-30T00:41:14.894Z,0
2017-05-30T00:42:15.143Z,0
2017-05-30T00:43:14.776Z,0
2017-05-30T00:44:14.698Z,0
2017-05-30T00:45:14.637Z,0
2017-05-30T00:46:14.568Z,0
2017-05-30T00:47:14.835Z,0
2017-05-30T00:48:14.448Z,0
2017-05-30T00:49:14.378Z,0
2017-05-30T00:50:14.646Z,0
2017-05-30T00:51:14.587Z,0
2017-05-30T00:52:14.194Z,0
2017-05-30T00:53:14.467Z,0
2017-05-30T00:54:14.071Z,0
2017-05-30T00:55:14.334Z,0
2017-05-30T00:56:14.686Z,0
2017-05-30T00:57:13.886Z,0
2017-05-30T00:58:14.149Z,0
2017-05-30T00:59:14.083Z,0
2017-05-30T01:00:13.695Z,0
2017-05-30T01:01:13.961Z,0
2017-05-30T01:02:13.898Z,0
2017-05-30T01:03:13.838Z,0
2017-05-30T01:04:13.773Z,0
2017-05-30T01:05:13.714Z,0
2017-05-30T01:06:13.328Z,0
2017-05-30T01:07:13.586Z,4
2017-05-30T01:08:13.527Z,8
2017-05-30T01:09:13.470Z,8
2017-05-30T01:10:12.516Z,8
2017-05-30T01:11:13.010Z,8
2017-05-30T01:12:13.276Z,8
2017-05-30T01:13:13.221Z,8
2017-05-30T01:14:12.498Z,8
2017-05-30T01:15:13.091Z,8
2017-05-30T01:16:12.700Z,8
2017-05-30T01:17:12.311Z,8
2017-05-30T01:18:12.904Z,8
2017-05-30T01:19:12.846Z,8
2017-05-30T01:20:12.452Z,8
2017-05-30T01:21:12.388Z,8
2017-05-30T01:22:12.657Z,8
2017-05-30T01:23:12.269Z,8
2017-05-30T01:24:12.532Z,8
2017-05-30T01:25:12.145Z,8
2017-05-30T01:26:12.407Z,8
2017-05-30T01:27:12.019Z,8
2017-05-30T01:28:12.283Z,8
2017-05-30T01:29:12.224Z,8
2017-05-30T01:30:12.157Z,8
2017-05-30T01:31:12.097Z,8
2017-05-30T01:32:11.709Z,8
2017-05-30T01:33:12.272Z,8
2017-05-30T01:34:11.917Z,8
2017-05-30T01:35:11.846Z,8
2017-05-30T01:36:11.788Z,8
2017-05-30T01:37:11.727Z,8
2017-05-30T01:38:11.669Z,8
2017-05-30T01:39:11.606Z,8
2017-05-30T01:40:11.214Z,8
2017-05-30T01:41:11.477Z,8
2017-05-30T01:42:11.085Z,8
2017-05-30T01:43:11.355Z,8
2017-05-30T01:44:10.961Z,8
2017-05-30T01:45:10.997Z,8
2017-05-30T01:46:11.164Z,8
2017-05-30T01:47:10.775Z,8
2017-05-30T01:48:11.040Z,8
2017-05-30T01:49:10.990Z,8
2017-05-30T01:50:10.591Z,8
2017-05-30T01:51:10.861Z,8
2017-05-30T01:52:10.518Z,8
2017-05-30T01:53:10.734Z,8
2017-05-30T01:54:10.399Z,8
2017-05-30T01:55:10.279Z,8
2017-05-30T01:56:10.219Z,8
2017-05-30T01:57:10.155Z,8
2017-05-30T01:58:10.093Z,8
2017-05-30T01:59:10.357Z,8
2017-05-30T02:00:09.971Z,8
2017-05-30T02:01:09.908Z,8
2017-05-30T02:02:09.841Z,8
2017-05-30T02:03:10.982Z,8
2017-05-30T02:04:09.718Z,8
2017-05-30T02:05:09.987Z,8
2017-05-30T02:06:09.921Z,8
2017-05-30T02:07:09.859Z,8
2017-05-30T02:08:09.471Z,8
2017-05-30T02:09:09.408Z,8
2017-05-30T02:10:09.350Z,8
2017-05-30T02:11:09.493Z,8
2017-05-30T02:12:09.548Z,8
2017-05-30T02:13:09.163Z,8
2017-05-30T02:14:09.099Z,8
2017-05-30T02:15:09.363Z,8
2017-05-30T02:16:09.302Z,8
2017-05-30T02:17:08.916Z,8
2017-05-30T02:18:08.852Z,8
2017-05-30T02:19:09.128Z,8
2017-05-30T02:20:08.499Z,8
2017-05-30T02:21:08.992Z,8
2017-05-30T02:22:08.805Z,8
2017-05-30T02:23:08.875Z,8
2017-05-30T02:24:09.015Z,8
2017-05-30T02:25:08.854Z,8
2017-05-30T02:26:08.685Z,8
2017-05-30T02:27:08.625Z,8
2017-05-30T02:28:08.558Z,8
2017-05-30T02:29:08.497Z,8
2017-05-30T02:30:08.161Z,8
2017-05-30T02:31:08.374Z,8
2017-05-30T02:32:07.982Z,8
2017-05-30T02:33:08.247Z,8
2017-05-30T02:34:08.184Z,8
2017-05-30T02:35:08.127Z,8
2017-05-30T02:36:08.063Z,8
2017-05-30T02:37:08.002Z,8
2017-05-30T02:38:07.613Z,8
2017-05-30T02:39:07.552Z,8
2017-05-30T02:40:07.812Z,8
2017-05-30T02:41:07.421Z,8
2017-05-30T02:42:07.687Z,8
2017-05-30T02:43:07.626Z,8
2017-05-30T02:44:07.561Z,8
2017-05-30T02:45:07.563Z,8
2017-05-30T02:46:07.441Z,8
2017-05-30T02:47:07.375Z,8
2017-05-30T02:48:07.316Z,8
2017-05-30T02:49:07.252Z,8
2017-05-30T02:50:07.197Z,8
2017-05-30T02:51:07.129Z,8
2017-05-30T02:52:07.074Z,8
2017-05-30T02:53:06.682Z,8
2017-05-30T02:54:06.624Z,8
2017-05-30T02:55:06.880Z,8
2017-05-30T02:56:06.816Z,8
2017-05-30T02:57:06.764Z,8
2017-05-30T02:58:06.696Z,8
2017-05-30T02:59:06.636Z,8
2017-05-30T03:00:06.576Z,8
2017-05-30T03:01:06.520Z,8
2017-05-30T03:02:06.124Z,8
2017-05-30T03:03:06.382Z,8
2017-05-30T03:04:06.322Z,8
2017-05-30T03:05:06.256Z,8
2017-05-30T03:06:05.869Z,8
2017-05-30T03:07:06.142Z,8
2017-05-30T03:08:06.081Z,8
2017-05-30T03:09:06.011Z,12
2017-05-30T03:10:05.952Z,12
2017-05-30T03:11:05.891Z,12
2017-05-30T03:12:05.499Z,8
2017-05-30T03:13:05.766Z,8
2017-05-30T03:14:05.710Z,8
2017-05-30T03:15:05.314Z,8
2017-05-30T03:16:05.587Z,8
2017-05-30T03:17:05.571Z,8
2017-05-30T03:18:05.464Z,8
2017-05-30T03:19:05.392Z,8
2017-05-30T03:20:05.338Z,8
2017-05-30T03:21:04.955Z,8
2017-05-30T03:22:04.882Z,8
2017-05-30T03:23:05.144Z,12
2017-05-30T03:24:05.500Z,8
2017-05-30T03:25:04.693Z,12
2017-05-30T03:26:04.957Z,12
2017-05-30T03:27:04.893Z,12
2017-05-30T03:28:04.833Z,12
2017-05-30T03:29:04.772Z,12
2017-05-30T03:30:04.729Z,12
2017-05-30T03:31:04.649Z,12
2017-05-30T03:32:04.591Z,12
2017-05-30T03:33:04.194Z,12
2017-05-30T03:34:04.462Z,12
2017-05-30T03:35:04.072Z,16
2017-05-30T03:36:04.334Z,16
2017-05-30T03:37:03.944Z,16
2017-05-30T03:38:04.216Z,12
2017-05-30T03:39:04.152Z,16
2017-05-30T03:40:04.087Z,16
2017-05-30T03:41:04.023Z,16
2017-05-30T03:42:03.965Z,16
2017-05-30T03:43:03.900Z,20
2017-05-30T03:44:03.837Z,16
2017-05-30T03:45:03.776Z,16
2017-05-30T03:46:03.712Z,20
2017-05-30T03:47:03.652Z,20
2017-05-30T03:48:03.594Z,20
2017-05-30T03:49:03.552Z,24
2017-05-30T03:50:03.242Z,20
2017-05-30T03:51:03.404Z,20
2017-05-30T03:52:03.341Z,20
2017-05-30T03:53:03.283Z,20
2017-05-30T03:54:03.218Z,20
2017-05-30T03:55:03.161Z,20
2017-05-30T03:56:03.091Z,20
2017-05-30T03:57:02.377Z,20
2017-05-30T03:58:02.970Z,20
2017-05-30T03:59:02.581Z,20
2017-05-30T04:00:02.527Z,20
2017-05-30T04:01:02.452Z,24
2017-05-30T04:02:02.393Z,20
2017-05-30T04:03:02.330Z,20
2017-05-30T04:04:02.290Z,24
2017-05-30T04:05:02.543Z,24
2017-05-30T04:06:02.479Z,28
2017-05-30T04:07:02.127Z,28
2017-05-30T04:08:02.034Z,28
2017-05-30T04:09:02.288Z,24
2017-05-30T04:10:02.227Z,24
2017-05-30T04:11:02.163Z,24
2017-05-30T04:12:02.105Z,24
2017-05-30T04:13:01.912Z,24
2017-05-30T04:14:01.977Z,24
2017-05-30T04:15:01.928Z,20
2017-05-30T04:16:01.860Z,16
2017-05-30T04:17:01.798Z,16
2017-05-30T04:18:01.734Z,16
2017-05-30T04:19:01.675Z,16
2017-05-30T04:20:01.274Z,16
2017-05-30T04:21:01.546Z,16
2017-05-30T04:22:01.747Z,16
2017-05-30T04:23:01.423Z,16
2017-05-30T04:24:01.357Z,16
2017-05-30T04:25:01.296Z,16
2017-05-30T04:26:01.231Z,16
2017-05-30T04:27:00.841Z,28
2017-05-30T04:28:00.450Z,28
2017-05-30T04:29:01.045Z,32
2017-05-30T04:30:00.985Z,32
2017-05-30T04:31:00.590Z,20
2017-05-30T04:32:00.530Z,20
2017-05-30T04:33:00.835Z,24
2017-05-30T04:34:00.746Z,20
2017-05-30T04:35:00.683Z,20
2017-05-30T04:36:00.611Z,24
2017-05-30T04:37:00.218Z,28
2017-05-30T04:38:00.489Z,24
2017-05-30T04:39:00.096Z,20
2017-05-30T04:40:00.035Z,20
2017-05-30T04:40:59.970Z,24
2017-05-30T04:42:00.235Z,36
2017-05-30T04:43:00.171Z,40
2017-05-30T04:44:00.111Z,44
2017-05-30T04:45:00.079Z,44
2017-05-30T04:45:59.987Z,44
2017-05-30T04:46:59.922Z,40
2017-05-30T04:47:59.863Z,40
2017-05-30T04:48:59.802Z,24
2017-05-30T04:49:59.743Z,20
2017-05-30T04:50:59.682Z,20
2017-05-30T04:51:59.612Z,16
2017-05-30T04:52:59.553Z,20
2017-05-30T04:53:59.487Z,20
2017-05-30T04:54:59.429Z,36
2017-05-30T04:55:59.052Z,48
2017-05-30T04:56:58.979Z,52
2017-05-30T04:57:58.919Z,52
2017-05-30T04:58:58.523Z,52
2017-05-30T04:59:59.115Z,56
2017-05-30T05:00:58.725Z,60
2017-05-30T05:01:58.998Z,60
2017-05-30T05:02:58.934Z,60
2017-05-30T05:03:58.213Z,60
2017-05-30T05:04:58.802Z,56
2017-05-30T05:05:58.742Z,52
2017-05-30T05:06:58.677Z,56
2017-05-30T05:07:58.617Z,60
2017-05-30T05:08:58.557Z,60
2017-05-30T05:09:58.492Z,56
2017-05-30T05:10:58.427Z,60
2017-05-30T05:11:58.366Z,60
2017-05-30T05:12:58.302Z,64
2017-05-30T05:13:58.242Z,60
2017-05-30T05:14:58.180Z,68
2017-05-30T05:15:58.116Z,68
2017-05-30T05:16:58.053Z,72
2017-05-30T05:17:57.992Z,72
2017-05-30T05:18:58.363Z,68
2017-05-30T05:19:57.539Z,68
2017-05-30T05:20:57.810Z,72
2017-05-30T05:21:57.742Z,72
2017-05-30T05:22:57.680Z,72
2017-05-30T05:23:57.622Z,72
2017-05-30T05:24:57.231Z,72
2017-05-30T05:25:57.166Z,76
2017-05-30T05:26:57.429Z,76
2017-05-30T05:27:57.042Z,76
2017-05-30T05:28:57.311Z,76
2017-05-30T05:29:57.249Z,80
2017-05-30T05:30:57.186Z,76
2017-05-30T05:31:57.122Z,76
2017-05-30T05:32:57.055Z,76
2017-05-30T05:33:56.341Z,76
2017-05-30T05:34:56.278Z,76
2017-05-30T05:35:56.869Z,76
2017-05-30T05:36:56.833Z,80
2017-05-30T05:37:56.413Z,80
2017-05-30T05:38:56.360Z,80
2017-05-30T05:39:56.293Z,80
2017-05-30T05:40:56.225Z,76
2017-05-30T05:41:56.165Z,76
2017-05-30T05:42:56.431Z,80
2017-05-30T05:43:56.368Z,76
2017-05-30T05:44:56.310Z,80
2017-05-30T05:45:55.916Z,80
2017-05-30T05:46:56.180Z,80
2017-05-30T05:47:55.799Z,80
2017-05-30T05:48:56.058Z,76
2017-05-30T05:49:55.992Z,76
2017-05-30T05:50:55.933Z,76
2017-05-30T05:51:55.865Z,76
2017-05-30T05:52:55.805Z,76
2017-05-30T05:53:55.747Z,76
2017-05-30T05:54:55.690Z,76
2017-05-30T05:55:55.622Z,76
2017-05-30T05:56:55.553Z,80
2017-05-30T05:57:55.497Z,84
2017-05-30T05:58:55.430Z,84
2017-05-30T05:59:55.041Z,84
2017-05-30T06:00:55.309Z,76
2017-05-30T06:01:55.242Z,72
2017-05-30T06:02:54.854Z,80
2017-05-30T06:03:54.792Z,84
2017-05-30T06:04:55.054Z,88
2017-05-30T06:05:54.667Z,88
2017-05-30T06:06:54.929Z,84
2017-05-30T06:07:54.869Z,80
2017-05-30T06:08:54.866Z,84
2017-05-30T06:09:54.416Z,84
2017-05-30T06:10:54.683Z,84
2017-05-30T06:11:54.693Z,84
2017-05-30T06:12:54.563Z,84
2017-05-30T06:13:54.489Z,88
2017-05-30T06:14:54.428Z,88
2017-05-30T06:15:54.373Z,88
2017-05-30T06:16:54.303Z,80
2017-05-30T06:17:54.242Z,80
2017-05-30T06:18:53.848Z,88
2017-05-30T06:19:54.117Z,92
2017-05-30T06:20:54.355Z,88
2017-05-30T06:21:53.995Z,92
2017-05-30T06:22:53.932Z,92
2017-05-30T06:23:53.885Z,96
2017-05-30T06:24:53.805Z,92
2017-05-30T06:25:53.889Z,96
2017-05-30T06:26:53.679Z,96
2017-05-30T06:27:53.615Z,96
2017-05-30T06:28:53.554Z,96
2017-05-30T06:29:53.491Z,100
2017-05-30T06:30:53.429Z,96
2017-05-30T06:31:53.365Z,92
2017-05-30T06:32:53.350Z,96
2017-05-30T06:33:53.250Z,96
2017-05-30T06:34:53.188Z,92
2017-05-30T06:35:52.792Z,92
2017-05-30T06:36:52.730Z,96
2017-05-30T06:37:52.988Z,100
2017-05-30T06:38:52.928Z,104
2017-05-30T06:39:52.861Z,104
2017-05-30T06:40:52.808Z,100
2017-05-30T06:41:52.736Z,100
2017-05-30T06:42:52.679Z,96
2017-05-30T06:43:52.617Z,100
2017-05-30T06:44:52.554Z,60
2017-05-30T06:45:52.491Z,100
2017-05-30T06:46:52.424Z,104
2017-05-30T06:47:52.362Z,52
2017-05-30T06:48:52.325Z,108
2017-05-30T06:49:52.254Z,68
2017-05-30T06:50:52.176Z,60
2017-05-30T06:51:52.113Z,108
2017-05-30T06:52:52.061Z,80
2017-05-30T06:53:51.992Z,52
2017-05-30T06:54:51.939Z,52
2017-05-30T06:55:51.866Z,56
2017-05-30T06:56:51.796Z,104
2017-05-30T06:57:51.734Z,52
2017-05-30T06:58:51.350Z,80
2017-05-30T06:59:51.609Z,104
2017-05-30T07:00:51.552Z,68
2017-05-30T07:01:51.486Z,104
2017-05-30T07:02:51.424Z,108
2017-05-30T07:03:51.370Z,52
2017-05-30T07:04:50.981Z,52
2017-05-30T07:05:50.910Z,112
2017-05-30T07:06:51.172Z,100
2017-05-30T07:07:50.798Z,104
2017-05-30T07:08:51.047Z,80
2017-05-30T07:09:50.982Z,104
2017-05-30T07:10:50.599Z,104
2017-05-30T07:11:50.203Z,112
2017-05-30T07:12:50.802Z,112
2017-05-30T07:13:50.741Z,116
2017-05-30T07:14:50.349Z,116
2017-05-30T07:15:50.859Z,120
2017-05-30T07:16:50.547Z,132
2017-05-30T07:17:50.484Z,132
2017-05-30T07:18:50.093Z,136
2017-05-30T07:19:50.360Z,136
2017-05-30T07:20:49.977Z,140
2017-05-30T07:21:49.909Z,136
2017-05-30T07:22:49.841Z,136
2017-05-30T07:23:50.110Z,132
2017-05-30T07:24:50.051Z,140
2017-05-30T07:25:49.979Z,80
2017-05-30T07:26:49.924Z,64
2017-05-30T07:27:49.860Z,84
2017-05-30T07:28:49.809Z,64
2017-05-30T07:29:49.731Z,64
2017-05-30T07:30:49.344Z,60
2017-05-30T07:31:49.278Z,56
2017-05-30T07:32:49.549Z,116
2017-05-30T07:33:49.483Z,56
2017-05-30T07:34:49.001Z,60
2017-05-30T07:35:49.029Z,60
2017-05-30T07:36:48.967Z,120
2017-05-30T07:37:49.234Z,116
2017-05-30T07:38:49.187Z,60
2017-05-30T07:39:49.106Z,120
2017-05-30T07:40:49.038Z,92
2017-05-30T07:41:48.977Z,116
2017-05-30T07:42:48.920Z,108
2017-05-30T07:43:48.854Z,52
2017-05-30T07:44:48.797Z,108
2017-05-30T07:45:48.727Z,108
2017-05-30T07:46:48.343Z,112
2017-05-30T07:47:48.600Z,112
2017-05-30T07:48:48.545Z,120
2017-05-30T07:49:48.477Z,116
2017-05-30T07:50:48.428Z,116
2017-05-30T07:51:48.369Z,116
2017-05-30T07:52:48.294Z,120
2017-05-30T07:53:48.234Z,112
2017-05-30T07:54:48.166Z,88
2017-05-30T07:55:48.102Z,92
2017-05-30T07:56:48.238Z,92
2017-05-30T07:57:47.979Z,64
2017-05-30T07:58:47.913Z,104
2017-05-30T07:59:47.852Z,92
2017-05-30T08:00:47.821Z,56
2017-05-30T08:01:47.732Z,80
2017-05-30T08:02:47.622Z,88
2017-05-30T08:03:47.746Z,88
2017-05-30T08:04:47.670Z,96
2017-05-30T08:05:47.179Z,80
2017-05-30T08:06:47.414Z,88
2017-05-30T08:07:47.361Z,44
2017-05-30T08:08:47.294Z,84
2017-05-30T08:09:47.226Z,84
2017-05-30T08:10:47.165Z,84
2017-05-30T08:11:47.100Z,80
2017-05-30T08:12:47.046Z,60
2017-05-30T08:13:46.972Z,88
2017-05-30T08:14:46.919Z,88
2017-05-30T08:15:46.531Z,88
2017-05-30T08:16:46.789Z,44
2017-05-30T08:17:46.754Z,88
2017-05-30T08:18:46.674Z,84
2017-05-30T08:19:46.277Z,76
2017-05-30T08:20:46.538Z,80
2017-05-30T08:21:46.477Z,84
2017-05-30T08:22:46.412Z,80
2017-05-30T08:23:46.354Z,76
2017-05-30T08:24:46.291Z,80
2017-05-30T08:25:45.902Z,80
2017-05-30T08:26:45.843Z,84
2017-05-30T08:27:46.107Z,84
2017-05-30T08:28:46.057Z,80
2017-05-30T08:29:45.982Z,80
2017-05-30T08:30:45.919Z,80
2017-05-30T08:31:45.874Z,80
2017-05-30T08:32:45.469Z,80
2017-05-30T08:33:45.736Z,88
2017-05-30T08:34:45.342Z,80
2017-05-30T08:35:45.625Z,84
2017-05-30T08:36:45.228Z,88
2017-05-30T08:37:45.260Z,88
2017-05-30T08:38:45.427Z,92
2017-05-30T08:39:44.705Z,92
2017-05-30T08:40:44.970Z,84
2017-05-30T08:41:45.235Z,88
2017-05-30T08:42:45.171Z,88
2017-05-30T08:43:45.113Z,84
2017-05-30T08:44:45.286Z,84
2017-05-30T08:45:44.999Z,80
2017-05-30T08:46:44.598Z,80
2017-05-30T08:47:44.870Z,80
2017-05-30T08:48:44.803Z,80
2017-05-30T08:49:44.410Z,76
2017-05-30T08:50:44.686Z,80
2017-05-30T08:51:44.654Z,80
2017-05-30T08:52:44.561Z,80
2017-05-30T08:53:44.928Z,80
2017-05-30T08:54:44.433Z,80
2017-05-30T08:55:44.370Z,80
2017-05-30T08:56:44.310Z,80
2017-05-30T08:57:44.252Z,80
2017-05-30T08:58:43.861Z,84
2017-05-30T08:59:44.126Z,84
2017-05-30T09:00:44.071Z,88
2017-05-30T09:01:44.004Z,84
2017-05-30T09:02:43.941Z,92
2017-05-30T09:03:43.879Z,84
2017-05-30T09:04:43.824Z,88
2017-05-30T09:05:43.752Z,88
2017-05-30T09:06:43.691Z,92
2017-05-30T09:07:43.636Z,92
2017-05-30T09:08:44.013Z,92
2017-05-30T09:09:43.183Z,92
2017-05-30T09:10:43.447Z,84
2017-05-30T09:11:43.392Z,104
2017-05-30T09:12:43.324Z,104
2017-05-30T09:13:43.264Z,108
2017-05-30T09:14:43.204Z,96
2017-05-30T09:15:43.138Z,100
2017-05-30T09:16:42.747Z,60
2017-05-30T09:17:42.893Z,56
2017-05-30T09:18:42.953Z,56
2017-05-30T09:19:42.891Z,60
2017-05-30T09:20:42.509Z,68
2017-05-30T09:21:42.772Z,104
2017-05-30T09:22:42.385Z,76
2017-05-30T09:23:42.648Z,72
2017-05-30T09:24:42.583Z,104
2017-05-30T09:25:42.617Z,64
2017-05-30T09:26:42.133Z,60
2017-05-30T09:27:42.408Z,68
2017-05-30T09:28:42.358Z,112
2017-05-30T09:29:42.426Z,88
2017-05-30T09:30:42.216Z,88
2017-05-30T09:31:41.869Z,76
2017-05-30T09:32:42.093Z,72
2017-05-30T09:33:42.033Z,64
2017-05-30T09:34:41.973Z,60
2017-05-30T09:35:41.912Z,60
2017-05-30T09:36:42.164Z,60
2017-05-30T09:37:41.466Z,68
2017-05-30T09:38:41.732Z,84
2017-05-30T09:39:41.720Z,68
2017-05-30T09:40:41.607Z,68
2017-05-30T09:41:41.217Z,64
2017-05-30T09:42:41.490Z,120
2017-05-30T09:43:41.423Z,124
2017-05-30T09:44:40.708Z,132
2017-05-30T09:45:40.642Z,128
2017-05-30T09:46:40.914Z,124
2017-05-30T09:47:40.854Z,128
2017-05-30T09:48:41.110Z,136
2017-05-30T09:49:40.735Z,144
2017-05-30T09:50:40.666Z,148
2017-05-30T09:51:40.606Z,148
2017-05-30T09:52:40.540Z,156
2017-05-30T09:53:40.481Z,156
2017-05-30T09:54:40.423Z,160
2017-05-30T09:55:40.790Z,156
2017-05-30T09:56:40.297Z,152
2017-05-30T09:57:40.234Z,144
2017-05-30T09:58:40.499Z,36
2017-05-30T09:59:40.440Z,28
2017-05-30T10:00:40.070Z,24
2017-05-30T10:01:40.333Z,20
2017-05-30T10:02:40.324Z,24
2017-05-30T10:03:39.873Z,20
2017-05-30T10:04:39.810Z,20
2017-05-30T10:05:40.080Z,20
2017-05-30T10:06:40.015Z,24
2017-05-30T10:07:39.958Z,24
2017-05-30T10:08:39.566Z,28
2017-05-30T10:09:39.832Z,32
2017-05-30T10:10:39.116Z,36
2017-05-30T10:11:39.709Z,40
2017-05-30T10:12:39.342Z,52
2017-05-30T10:13:39.585Z,172
2017-05-30T10:14:39.527Z,48
2017-05-30T10:15:39.713Z,40
2017-05-30T10:16:39.409Z,36
2017-05-30T10:17:39.354Z,28
2017-05-30T10:18:39.279Z,28
2017-05-30T10:19:39.231Z,32
2017-05-30T10:20:38.998Z,32
2017-05-30T10:21:38.786Z,36
2017-05-30T10:22:39.036Z,40
2017-05-30T10:23:38.984Z,40
2017-05-30T10:24:38.915Z,44
2017-05-30T10:25:38.201Z,40
2017-05-30T10:26:38.795Z,44
2017-05-30T10:27:38.402Z,48
2017-05-30T10:28:38.365Z,48
2017-05-30T10:29:37.955Z,48
2017-05-30T10:30:38.618Z,44
2017-05-30T10:31:38.159Z,36
2017-05-30T10:32:38.421Z,32
2017-05-30T10:33:38.372Z,32
2017-05-30T10:34:38.174Z,32
2017-05-30T10:35:38.244Z,28
2017-05-30T10:36:38.177Z,28
2017-05-30T10:37:37.134Z,24
2017-05-30T10:38:38.056Z,20
2017-05-30T10:39:37.994Z,20
2017-05-30T10:40:37.604Z,20
2017-05-30T10:41:37.871Z,20
2017-05-30T10:42:37.485Z,24
2017-05-30T10:43:37.418Z,24
2017-05-30T10:44:37.690Z,24
2017-05-30T10:45:37.296Z,28
2017-05-30T10:46:37.563Z,24
2017-05-30T10:47:37.510Z,24
2017-05-30T10:48:37.445Z,24
2017-05-30T10:49:37.382Z,24
2017-05-30T10:50:36.665Z,24
2017-05-30T10:51:36.931Z,28
2017-05-30T10:52:37.200Z,24
2017-05-30T10:53:36.815Z,24
2017-05-30T10:54:37.093Z,20
2017-05-30T10:55:37.064Z,16
2017-05-30T10:56:36.622Z,12
2017-05-30T10:57:36.566Z,12
2017-05-30T10:58:36.831Z,104
2017-05-30T10:59:36.770Z,152
2017-05-30T11:00:36.416Z,164
2017-05-30T11:01:35.994Z,164
2017-05-30T11:02:36.585Z,168
2017-05-30T11:03:35.869Z,164
2017-05-30T11:04:35.809Z,160
2017-05-30T11:05:36.076Z,160
2017-05-30T11:06:36.020Z,160
2017-05-30T11:07:35.958Z,160
2017-05-30T11:08:35.895Z,160
2017-05-30T11:09:36.172Z,160
2017-05-30T11:10:36.094Z,164
2017-05-30T11:11:36.035Z,164
2017-05-30T11:12:35.979Z,164
2017-05-30T11:13:35.912Z,168
2017-05-30T11:14:35.853Z,168
2017-05-30T11:15:35.139Z,164
2017-05-30T11:16:35.933Z,168
2017-05-30T11:17:35.670Z,168
2017-05-30T11:18:35.301Z,168
2017-05-30T11:19:35.550Z,164
2017-05-30T11:20:35.161Z,164
2017-05-30T11:21:35.432Z,168
2017-05-30T11:22:35.038Z,168
2017-05-30T11:23:34.980Z,168
2017-05-30T11:24:34.589Z,168
2017-05-30T11:25:34.629Z,168
2017-05-30T11:26:35.137Z,168
2017-05-30T11:27:35.071Z,168
2017-05-30T11:28:35.003Z,164
2017-05-30T11:29:34.630Z,164
2017-05-30T11:30:34.554Z,164
2017-05-30T11:31:34.823Z,164
2017-05-30T11:32:34.430Z,160
2017-05-30T11:33:34.703Z,164
2017-05-30T11:34:34.645Z,164
2017-05-30T11:35:34.576Z,160
2017-05-30T11:36:34.517Z,164
2017-05-30T11:37:34.460Z,16
2017-05-30T11:38:34.396Z,16
2017-05-30T11:39:34.335Z,16
2017-05-30T11:40:33.951Z,16
2017-05-30T11:41:33.891Z,16
2017-05-30T11:42:34.155Z,16
2017-05-30T11:43:34.095Z,16
2017-05-30T11:44:34.050Z,16
2017-05-30T11:45:33.975Z,16
2017-05-30T11:46:33.909Z,16
2017-05-30T11:47:33.853Z,20
2017-05-30T11:48:33.462Z,20
2017-05-30T11:49:33.729Z,16
2017-05-30T11:50:33.348Z,20
2017-05-30T11:51:32.956Z,20
2017-05-30T11:52:33.549Z,20
2017-05-30T11:53:32.836Z,20
2017-05-30T11:54:33.308Z,20
2017-05-30T11:55:33.531Z,24
2017-05-30T11:56:32.655Z,24
2017-05-30T11:57:32.922Z,24
2017-05-30T11:58:33.183Z,20
2017-05-30T11:59:33.126Z,20
2017-05-30T12:00:33.221Z,20
2017-05-30T12:01:33.004Z,24
2017-05-30T12:02:32.293Z,24
2017-05-30T12:03:32.894Z,24
2017-05-30T12:04:32.822Z,24
2017-05-30T12:05:32.763Z,24
2017-05-30T12:06:32.369Z,24
2017-05-30T12:07:32.315Z,24
2017-05-30T12:08:32.574Z,24
2017-05-30T12:09:32.515Z,24
2017-05-30T12:10:32.458Z,24
2017-05-30T12:11:32.399Z,24
2017-05-30T12:12:32.009Z,24
2017-05-30T12:13:32.275Z,28
2017-05-30T12:14:31.890Z,24
2017-05-30T12:15:31.823Z,24
2017-05-30T12:16:32.093Z,28
2017-05-30T12:17:32.035Z,28
2017-05-30T12:18:31.973Z,28
2017-05-30T12:19:31.582Z,28
2017-05-30T12:20:31.850Z,32
2017-05-30T12:21:31.789Z,28
2017-05-30T12:22:31.732Z,32
2017-05-30T12:23:31.516Z,32
2017-05-30T12:24:30.652Z,36
2017-05-30T12:25:31.548Z,40
2017-05-30T12:26:31.198Z,36
2017-05-30T12:27:31.099Z,40
2017-05-30T12:28:31.044Z,40
2017-05-30T12:29:31.301Z,40
2017-05-30T12:30:30.971Z,44
2017-05-30T12:31:31.191Z,40
2017-05-30T12:32:31.131Z,44
2017-05-30T12:33:31.091Z,44
2017-05-30T12:34:31.005Z,44
2017-05-30T12:35:30.612Z,44
2017-05-30T12:36:30.884Z,40
2017-05-30T12:37:30.522Z,44
2017-05-30T12:38:30.099Z,44
2017-05-30T12:39:30.705Z,48
2017-05-30T12:40:30.315Z,44
2017-05-30T12:41:30.580Z,44
2017-05-30T12:42:30.513Z,48
2017-05-30T12:43:30.141Z,48
2017-05-30T12:44:30.393Z,48
2017-05-30T12:45:29.792Z,48
2017-05-30T12:46:30.526Z,48
2017-05-30T12:47:30.498Z,48
2017-05-30T12:48:29.837Z,48
2017-05-30T12:49:30.095Z,48
2017-05-30T12:50:29.057Z,48
2017-05-30T12:51:29.974Z,52
2017-05-30T12:52:29.101Z,48
2017-05-30T12:53:29.531Z,48
2017-05-30T12:54:29.133Z,48
2017-05-30T12:55:29.759Z,52
2017-05-30T12:56:29.353Z,52
2017-05-30T12:57:29.922Z,52
2017-05-30T12:58:29.219Z,52
2017-05-30T12:59:29.159Z,48
2017-05-30T13:00:29.423Z,48
2017-05-30T13:01:29.094Z,48
2017-05-30T13:02:29.303Z,48
2017-05-30T13:03:29.244Z,48
2017-05-30T13:04:28.522Z,48
2017-05-30T13:05:29.113Z,48
2017-05-30T13:06:29.107Z,52
2017-05-30T13:07:29.060Z,52
2017-05-30T13:08:29.006Z,60
2017-05-30T13:09:28.542Z,60
2017-05-30T13:10:28.157Z,68
2017-05-30T13:11:28.437Z,68
2017-05-30T13:12:28.418Z,68
2017-05-30T13:13:28.859Z,68
2017-05-30T13:14:28.573Z,72
2017-05-30T13:15:28.509Z,72
2017-05-30T13:16:28.475Z,72
2017-05-30T13:17:28.061Z,68
2017-05-30T13:18:28.326Z,72
2017-05-30T13:19:27.962Z,72
2017-05-30T13:20:27.884Z,68
2017-05-30T13:21:28.605Z,64
2017-05-30T13:22:28.130Z,64
2017-05-30T13:23:28.031Z,64
2017-05-30T13:24:27.995Z,64
2017-05-30T13:25:27.902Z,176
2017-05-30T13:26:27.514Z,212
2017-05-30T13:27:27.797Z,220
2017-05-30T13:28:27.392Z,216
2017-05-30T13:29:27.682Z,220
2017-05-30T13:30:27.602Z,220
2017-05-30T13:31:27.513Z,220
2017-05-30T13:32:27.482Z,220
2017-05-30T13:33:27.412Z,224
2017-05-30T13:34:27.025Z,228
2017-05-30T13:35:27.303Z,224
2017-05-30T13:36:26.909Z,220
2017-05-30T13:37:26.844Z,220
2017-05-30T13:38:27.110Z,220
2017-05-30T13:39:27.053Z,220
2017-05-30T13:40:27.212Z,224
2017-05-30T13:41:26.924Z,228
2017-05-30T13:42:26.911Z,232
2017-05-30T13:43:26.518Z,228
2017-05-30T13:44:26.454Z,224
2017-05-30T13:45:26.032Z,216
2017-05-30T13:46:26.031Z,212
2017-05-30T13:47:26.237Z,212
2017-05-30T13:48:26.501Z,212
2017-05-30T13:49:26.450Z,208
2017-05-30T13:50:26.381Z,208
2017-05-30T13:51:26.317Z,204
2017-05-30T13:52:25.931Z,212
2017-05-30T13:53:26.198Z,212
2017-05-30T13:54:25.816Z,220
2017-05-30T13:55:26.333Z,224
2017-05-30T13:56:26.027Z,224
2017-05-30T13:57:25.637Z,224
2017-05-30T13:58:25.583Z,232
2017-05-30T13:59:25.833Z,228
2017-05-30T14:00:25.771Z,232
2017-05-30T14:01:25.719Z,252
2017-05-30T14:02:25.013Z,244
2017-05-30T14:03:25.606Z,236
2017-05-30T14:04:25.532Z,268
2017-05-30T14:05:25.466Z,272
2017-05-30T14:06:25.419Z,268
2017-05-30T14:07:25.022Z,268
2017-05-30T14:08:25.284Z,260
2017-05-30T14:09:25.231Z,240
2017-05-30T14:10:25.164Z,244
2017-05-30T14:11:25.103Z,256
2017-05-30T14:12:25.041Z,256
2017-05-30T14:13:25.071Z,260
2017-05-30T14:14:24.924Z,260
2017-05-30T14:15:24.864Z,260
2017-05-30T14:16:24.832Z,248